Time;durP1;ratioP1;P1;durP2;ratioP2;P2;SDS_P1;SDS_P2;PMS_P1;PMS_P2;Temp;Humidity;BMP_temperature;BMP_pressure;BME280_temperature;BME280_humidity;BME280_pressure;Samples;Min_cycle;Max_cycle;Signal;HPM_P1;HPM_P2
2023/06/27 00:01:21;;;;;;;7.78;3.88;;;;;;;15.71;77.60;101916.75;4970224;28;20057;-79
2023/06/27 00:03:51;;;;;;;14.07;4.63;;;;;;;15.64;77.83;101922.53;4969201;28;20041;-80
2023/06/27 00:06:19;;;;;;;10.55;3.90;;;;;;;15.65;77.96;101926.03;4971932;28;20023;-79
2023/06/27 00:08:48;;;;;;;11.10;3.60;;;;;;;15.62;78.13;101913.00;4970865;28;20046;-79
2023/06/27 00:11:14;;;;;;;10.45;3.90;;;;;;;15.64;78.13;101913.72;4970347;28;20026;-79
2023/06/27 00:13:41;;;;;;;10.48;3.95;;;;;;;15.61;78.31;101917.47;4971475;28;20022;-79
2023/06/27 00:16:13;;;;;;;10.80;4.20;;;;;;;15.63;78.52;101912.88;4970736;28;20081;-80
2023/06/27 00:18:50;;;;;;;14.17;4.73;;;;;;;15.60;78.26;101912.25;4967628;28;20093;-80
2023/06/27 00:21:16;;;;;;;10.05;4.00;;;;;;;15.52;78.81;101912.81;4970852;28;20085;-78
2023/06/27 00:23:43;;;;;;;9.52;4.20;;;;;;;15.50;78.90;101914.75;4985654;28;20574;-79
2023/06/27 00:26:09;;;;;;;10.57;4.00;;;;;;;15.45;79.28;101914.25;4970308;28;20039;-79
2023/06/27 00:28:35;;;;;;;11.63;4.20;;;;;;;15.47;78.99;101917.63;4971034;28;20027;-79
2023/06/27 00:31:02;;;;;;;13.43;4.28;;;;;;;15.53;78.89;101919.81;4969967;28;20034;-79
2023/06/27 00:33:27;;;;;;;12.93;4.70;;;;;;;15.45;79.07;101914.25;4968948;28;20102;-80
2023/06/27 00:35:53;;;;;;;10.13;4.03;;;;;;;15.53;79.06;101916.31;4966292;28;20027;-79
2023/06/27 00:38:18;;;;;;;13.82;4.38;;;;;;;15.46;79.28;101917.75;4970131;28;20050;-79
2023/06/27 00:40:43;;;;;;;15.25;4.30;;;;;;;15.45;79.41;101908.97;4959645;28;20031;-80
2023/06/27 00:43:09;;;;;;;15.40;4.18;;;;;;;15.50;79.48;101911.25;4964869;28;20026;-80
2023/06/27 00:45:34;;;;;;;14.38;4.10;;;;;;;15.49;79.20;101915.72;4969771;28;20015;-80
2023/06/27 00:48:02;;;;;;;12.00;4.05;;;;;;;15.46;79.44;101912.44;4970158;28;20062;-80
2023/06/27 00:50:30;;;;;;;9.95;3.85;;;;;;;15.43;79.44;101913.53;4969915;28;20023;-80
2023/06/27 00:52:59;;;;;;;9.38;4.18;;;;;;;15.38;79.75;101915.69;4957185;28;20147;-80
2023/06/27 00:55:25;;;;;;;11.85;4.05;;;;;;;15.44;79.59;101919.69;4969498;28;20450;-79
2023/06/27 00:57:50;;;;;;;9.57;3.95;;;;;;;15.43;79.75;101918.84;4970397;28;20054;-79
2023/06/27 01:00:16;;;;;;;14.05;4.43;;;;;;;15.43;79.66;101920.66;4969030;28;20045;-80
2023/06/27 01:02:43;;;;;;;10.35;4.25;;;;;;;15.42;79.61;101922.47;4968803;28;20134;-73
2023/06/27 01:05:09;;;;;;;12.80;4.38;;;;;;;15.33;80.03;101923.16;4968626;28;20019;-73
2023/06/27 01:07:40;;;;;;;10.15;4.00;;;;;;;15.36;80.16;101922.94;4968612;28;20037;-80
2023/06/27 01:10:33;;;;;;;9.18;3.78;;;;;;;15.34;80.22;101925.72;4952477;28;20110;-80
2023/06/27 01:13:08;;;;;;;11.40;4.00;;;;;;;15.34;80.41;101930.16;4972956;28;20039;-73
2023/06/27 01:15:35;;;;;;;13.25;4.28;;;;;;;15.32;80.62;101932.09;4974311;28;20390;-72
2023/06/27 01:18:01;;;;;;;10.20;3.83;;;;;;;15.35;80.34;101922.09;4973707;28;20023;-72
2023/06/27 01:20:27;;;;;;;12.65;4.30;;;;;;;15.36;80.75;101922.94;4973541;28;20487;-80
2023/06/27 01:23:25;;;;;;;9.95;3.72;;;;;;;15.36;80.09;101926.44;4974321;28;20387;-73
2023/06/27 01:25:59;;;;;;;14.55;4.50;;;;;;;15.20;81.40;101927.69;4971411;28;20038;-79
2023/06/27 01:28:25;;;;;;;13.73;3.92;;;;;;;15.25;81.12;101926.41;4973291;28;20034;-72
2023/06/27 01:30:50;;;;;;;11.88;4.03;;;;;;;15.25;81.42;101925.56;4974369;28;20050;-79
2023/06/27 01:33:46;;;;;;;12.20;4.10;;;;;;;15.29;80.44;101929.69;4955751;28;20046;-78
2023/06/27 01:36:26;;;;;;;9.13;4.03;;;;;;;15.26;81.55;101921.97;4970405;28;20078;-72
2023/06/27 01:39:01;;;;;;;8.63;3.83;;;;;;;15.23;81.71;101923.03;4959091;28;20126;-73
2023/06/27 01:41:31;;;;;;;13.52;4.20;;;;;;;15.23;81.72;101932.81;4985391;28;20081;-80
2023/06/27 01:44:01;;;;;;;8.43;3.95;;;;;;;15.19;81.97;101932.16;4957175;28;20102;-80
2023/06/27 01:46:28;;;;;;;9.30;3.83;;;;;;;15.13;82.40;101922.03;4971562;28;20034;-80
2023/06/27 01:48:55;;;;;;;9.63;3.72;;;;;;;15.10;82.81;101922.25;4972403;28;20397;-80
2023/06/27 01:51:20;;;;;;;11.20;3.97;;;;;;;15.18;82.49;101917.22;4974095;28;20434;-80
2023/06/27 01:53:47;;;;;;;11.27;4.25;;;;;;;15.14;82.69;101917.56;4972732;28;20027;-80
2023/06/27 01:56:13;;;;;;;12.75;3.83;;;;;;;15.15;82.53;101916.59;4971145;28;20035;-80
2023/06/27 01:58:39;;;;;;;9.63;3.92;;;;;;;15.13;82.93;101915.88;4967945;28;20077;-73
2023/06/27 02:01:05;;;;;;;12.32;4.10;;;;;;;15.11;82.96;101917.81;4956921;28;20483;-73
2023/06/27 02:03:31;;;;;;;10.68;4.15;;;;;;;15.08;82.98;101912.75;4972581;28;20161;-80
2023/06/27 02:05:56;;;;;;;12.43;4.50;;;;;;;15.09;83.36;101903.81;4973452;28;20030;-80
2023/06/27 02:08:22;;;;;;;8.13;3.80;;;;;;;15.01;83.82;101907.91;4972941;28;20100;-80
2023/06/27 02:10:47;;;;;;;10.80;4.10;;;;;;;15.02;83.70;101914.06;4971790;28;20390;-73
2023/06/27 02:13:12;;;;;;;20.17;4.63;;;;;;;15.04;83.71;101907.66;4972964;28;20435;-80
2023/06/27 02:15:38;;;;;;;10.50;3.90;;;;;;;15.07;83.79;101908.41;4962716;28;20038;-80
2023/06/27 02:18:04;;;;;;;11.80;3.88;;;;;;;15.03;84.00;101908.63;4971118;28;20113;-73
2023/06/27 02:20:30;;;;;;;9.38;3.60;;;;;;;15.01;83.95;101907.06;4972895;28;20062;-79
2023/06/27 02:22:55;;;;;;;14.20;4.28;;;;;;;14.95;84.77;101904.88;4972892;28;20061;-80
2023/06/27 02:25:20;;;;;;;10.30;4.28;;;;;;;14.99;84.42;101904.53;4972703;28;20031;-80
2023/06/27 02:27:47;;;;;;;9.05;3.90;;;;;;;14.94;84.58;101904.03;4972700;28;20085;-80
2023/06/27 02:30:12;;;;;;;11.48;4.25;;;;;;;14.98;84.86;101913.44;4972156;28;20031;-80
2023/06/27 02:32:38;;;;;;;15.73;4.20;;;;;;;14.92;85.11;101900.66;4983355;28;20081;-80
2023/06/27 02:35:03;;;;;;;8.88;3.90;;;;;;;14.96;85.12;101899.47;4955753;28;21769;-80
2023/06/27 02:37:30;;;;;;;11.02;4.43;;;;;;;14.93;85.22;101894.41;4972757;28;20101;-80
2023/06/27 02:39:57;;;;;;;9.95;4.07;;;;;;;14.83;85.54;101896.06;4971663;28;20081;-80
2023/06/27 02:42:22;;;;;;;11.88;4.43;;;;;;;14.86;85.81;101892.31;4987207;28;20371;-80
2023/06/27 02:44:48;;;;;;;13.88;4.10;;;;;;;14.85;86.12;101886.19;4971536;28;20034;-81
2023/06/27 02:47:14;;;;;;;10.73;4.30;;;;;;;14.83;86.44;101888.09;4972120;28;20055;-81
2023/06/27 02:49:40;;;;;;;12.10;4.63;;;;;;;14.81;85.89;101894.44;4965692;28;20062;-81
2023/06/27 02:52:06;;;;;;;12.57;4.32;;;;;;;14.78;86.83;101894.69;4952415;28;20765;-81
2023/06/27 02:54:31;;;;;;;9.18;3.78;;;;;;;14.78;86.70;101890.22;4969401;28;20035;-81
2023/06/27 02:56:56;;;;;;;14.38;5.03;;;;;;;14.71;87.01;101895.16;4971833;28;20222;-79
2023/06/27 02:59:22;;;;;;;11.10;4.85;;;;;;;14.74;87.02;101878.16;4970834;28;20034;-73
2023/06/27 03:01:47;;;;;;;14.80;4.32;;;;;;;14.74;87.07;101888.78;4972309;28;20430;-73
2023/06/27 03:04:18;;;;;;;11.45;4.25;;;;;;;14.66;87.76;101896.44;4970937;28;20058;-80
2023/06/27 03:06:44;;;;;;;8.63;3.78;;;;;;;14.65;88.05;101900.06;4968024;28;20030;-79
2023/06/27 03:09:10;;;;;;;12.98;4.63;;;;;;;14.68;87.68;101900.66;4956677;28;20035;-80
2023/06/27 03:11:35;;;;;;;9.98;4.03;;;;;;;14.68;87.91;101894.53;4953617;28;20027;-80
2023/06/27 03:14:00;;;;;;;12.57;4.20;;;;;;;14.69;87.83;101894.41;4968619;28;20089;-80
2023/06/27 03:16:26;;;;;;;10.75;4.13;;;;;;;14.71;87.63;101896.94;4970792;28;20494;-79
2023/06/27 03:18:51;;;;;;;10.20;3.95;;;;;;;14.74;87.47;101904.66;4971032;28;20037;-73
2023/06/27 03:21:16;;;;;;;11.95;4.25;;;;;;;14.68;87.95;101902.47;4970896;28;20395;-80
2023/06/27 03:23:43;;;;;;;11.18;4.32;;;;;;;14.69;88.21;101904.16;4968610;28;20036;-80
2023/06/27 03:26:08;;;;;;;13.80;4.28;;;;;;;14.68;88.15;101907.78;4971344;28;20097;-80
2023/06/27 03:28:34;;;;;;;13.02;4.20;;;;;;;14.66;88.60;101909.69;4969814;28;20114;-80
2023/06/27 03:31:00;;;;;;;10.95;4.68;;;;;;;14.69;88.42;101906.81;4971016;28;20026;-78
2023/06/27 03:33:25;;;;;;;11.23;4.38;;;;;;;14.71;88.67;101899.59;4971160;28;20113;-78
2023/06/27 03:35:51;;;;;;;8.23;3.92;;;;;;;14.71;88.47;101900.44;4969365;28;20126;-81
2023/06/27 03:38:16;;;;;;;12.30;4.15;;;;;;;14.77;88.30;101906.25;4970678;28;20471;-80
2023/06/27 03:40:41;;;;;;;10.05;3.90;;;;;;;14.77;88.07;101906.25;4970599;28;20061;-80
2023/06/27 03:43:10;;;;;;;14.02;4.63;;;;;;;14.73;88.62;101909.13;4968773;28;20034;-80
2023/06/27 03:45:36;;;;;;;17.55;4.85;;;;;;;14.73;88.81;101902.97;4971248;28;20022;-79
2023/06/27 03:48:01;;;;;;;10.25;3.90;;;;;;;14.73;88.91;101902.97;4970047;28;20039;-73
2023/06/27 03:50:27;;;;;;;12.18;4.20;;;;;;;14.70;88.88;101906.69;4970422;28;20034;-80
2023/06/27 03:52:52;;;;;;;14.98;4.53;;;;;;;14.68;89.44;101910.44;4972013;28;20035;-79
2023/06/27 03:55:18;;;;;;;11.18;4.63;;;;;;;14.64;89.41;101914.25;4969035;28;20106;-80
2023/06/27 03:57:43;;;;;;;12.18;4.60;;;;;;;14.65;89.48;101915.94;4969726;28;20407;-73
2023/06/27 04:00:10;;;;;;;12.95;4.72;;;;;;;14.65;89.69;101910.66;4968076;28;20058;-80
2023/06/27 04:02:36;;;;;;;16.25;4.60;;;;;;;14.63;89.96;101915.22;4971144;28;20030;-79
2023/06/27 04:05:03;;;;;;;15.25;4.28;;;;;;;14.65;89.74;101915.94;4971140;28;20034;-78
2023/06/27 04:07:29;;;;;;;15.48;4.63;;;;;;;14.65;90.06;101915.94;4970746;28;20058;-79
2023/06/27 04:09:54;;;;;;;9.27;4.28;;;;;;;14.74;89.50;101915.25;4976868;28;20050;-79
2023/06/27 04:12:19;;;;;;;11.55;4.38;;;;;;;14.65;89.90;101908.00;4971353;28;20454;-80
2023/06/27 04:14:49;;;;;;;14.90;4.68;;;;;;;14.58;90.35;101907.63;4971260;28;20055;-80
2023/06/27 04:17:15;;;;;;;13.32;4.85;;;;;;;14.58;90.53;101904.13;4957200;28;20582;-79
2023/06/27 04:19:44;;;;;;;14.20;4.70;;;;;;;14.53;90.82;101904.47;4972797;28;20042;-79
2023/06/27 04:22:09;;;;;;;15.43;4.70;;;;;;;14.45;91.37;101903.34;4971211;28;20085;-80
2023/06/27 04:24:36;;;;;;;12.57;4.68;;;;;;;14.44;91.80;101912.25;4970535;28;20019;-79
2023/06/27 04:27:02;;;;;;;13.13;4.38;;;;;;;14.52;91.23;101912.53;4971906;28;20394;-79
2023/06/27 04:29:28;;;;;;;12.38;4.78;;;;;;;14.46;91.75;101911.19;4971290;28;20460;-79
2023/06/27 04:31:54;;;;;;;13.73;4.75;;;;;;;14.44;91.97;101917.53;4967283;28;20502;-79
2023/06/27 04:34:21;;;;;;;12.02;4.60;;;;;;;14.45;92.07;101909.50;4970623;28;20066;-79
2023/06/27 04:36:46;;;;;;;12.93;4.85;;;;;;;14.39;92.40;101923.97;4970953;28;20081;-80
2023/06/27 04:39:12;;;;;;;13.68;4.68;;;;;;;14.35;92.46;101919.84;4969079;28;20035;-80
2023/06/27 04:41:38;;;;;;;10.65;4.50;;;;;;;14.35;92.85;101925.16;4969987;28;20027;-80
2023/06/27 04:44:03;;;;;;;16.15;4.80;;;;;;;14.25;93.26;101926.78;4969173;28;20085;-78
2023/06/27 04:46:28;;;;;;;15.10;4.60;;;;;;;14.24;93.30;101914.50;4969193;28;20019;-72
2023/06/27 04:48:56;;;;;;;10.35;4.78;;;;;;;14.30;93.49;101932.59;4969858;28;20034;-80
2023/06/27 04:51:27;;;;;;;11.38;4.70;;;;;;;14.27;93.72;101927.50;4954894;28;20119;-80
2023/06/27 04:53:53;;;;;;;14.65;5.28;;;;;;;14.29;93.75;101927.41;4968602;28;20038;-80
2023/06/27 04:56:18;;;;;;;16.50;5.47;;;;;;;14.24;93.95;101925.09;4969825;28;20019;-80
2023/06/27 04:58:44;;;;;;;13.35;5.10;;;;;;;14.23;94.41;101931.34;4968389;28;20093;-80
2023/06/27 05:01:09;;;;;;;13.00;4.90;;;;;;;14.24;94.46;101927.72;4968423;28;20041;-79
2023/06/27 05:03:37;;;;;;;12.50;5.00;;;;;;;14.30;94.62;101926.44;4968593;28;20034;-79
2023/06/27 05:06:03;;;;;;;16.52;5.40;;;;;;;14.40;94.09;101928.31;4968093;28;20027;-72
2023/06/27 05:08:29;;;;;;;15.23;5.22;;;;;;;14.45;94.39;101929.81;4969365;28;20676;-80
2023/06/27 05:10:54;;;;;;;12.77;4.82;;;;;;;14.50;94.10;101933.81;4969444;28;20102;-80
2023/06/27 05:13:20;;;;;;;14.65;5.40;;;;;;;14.58;94.31;101933.25;4967570;28;20466;-80
2023/06/27 05:15:45;;;;;;;16.67;5.50;;;;;;;14.72;94.10;101933.94;4969537;28;20466;-81
2023/06/27 05:18:12;;;;;;;15.15;5.18;;;;;;;14.83;94.24;101930.50;4969535;28;20491;-81
2023/06/27 05:20:38;;;;;;;16.88;5.63;;;;;;;14.96;94.11;101931.25;4969017;28;20069;-81
2023/06/27 05:23:05;;;;;;;12.88;5.15;;;;;;;15.08;93.70;101926.00;4958977;28;20054;-82
2023/06/27 05:25:31;;;;;;;12.30;5.05;;;;;;;15.21;93.42;101929.38;4959761;28;20070;-81
2023/06/27 05:27:57;;;;;;;14.52;5.28;;;;;;;15.27;93.26;101934.25;4966354;28;20034;-82
2023/06/27 05:30:22;;;;;;;19.30;5.13;;;;;;;15.37;92.96;101932.56;4969149;28;20033;-81
2023/06/27 05:32:47;;;;;;;12.45;5.35;;;;;;;15.45;92.62;101935.47;4968264;28;20069;-80
2023/06/27 05:35:14;;;;;;;14.50;5.65;;;;;;;15.55;92.57;101925.00;4967867;28;20057;-80
2023/06/27 05:37:40;;;;;;;17.45;6.05;;;;;;;15.64;92.17;101927.84;4973779;28;20105;-79
2023/06/27 05:40:08;;;;;;;18.70;5.40;;;;;;;15.69;91.76;101931.94;4968080;28;20114;-80
2023/06/27 05:42:44;;;;;;;17.10;5.13;;;;;;;15.78;91.60;101923.25;4971301;28;20391;-78
2023/06/27 05:45:10;;;;;;;15.23;5.82;;;;;;;15.89;91.57;101928.53;4968610;28;20457;-80
2023/06/27 05:47:35;;;;;;;21.52;5.90;;;;;;;16.00;91.31;101920.56;4970488;28;20499;-79
2023/06/27 05:50:02;;;;;;;15.05;5.93;;;;;;;16.13;91.05;101921.28;4969307;28;20062;-79
2023/06/27 05:52:29;;;;;;;14.95;5.85;;;;;;;16.20;91.18;101924.28;4970060;28;20394;-79
2023/06/27 05:54:55;;;;;;;16.60;5.82;;;;;;;16.28;90.86;101922.69;4967066;28;20027;-78
2023/06/27 05:57:20;;;;;;;16.38;5.85;;;;;;;16.32;90.89;101925.94;4959370;28;20062;-77
2023/06/27 05:59:50;;;;;;;13.68;5.75;;;;;;;16.33;90.43;101930.28;4972319;28;20069;-79
2023/06/27 06:02:15;;;;;;;20.75;6.25;;;;;;;16.35;90.98;101922.19;4972181;28;20130;-78
2023/06/27 06:04:47;;;;;;;14.57;6.00;;;;;;;16.38;91.04;101924.59;4973475;28;20435;-78
2023/06/27 06:07:14;;;;;;;17.58;6.40;;;;;;;16.44;91.14;101921.47;4971237;28;20045;-78
2023/06/27 06:09:39;;;;;;;16.67;6.70;;;;;;;16.46;91.14;101922.19;4972849;28;20065;-78
2023/06/27 06:12:05;;;;;;;14.57;6.18;;;;;;;16.51;91.07;101917.34;4972033;28;20055;-77
2023/06/27 06:14:31;;;;;;;18.77;6.25;;;;;;;16.51;91.12;101923.50;4973683;28;20042;-78
2023/06/27 06:16:58;;;;;;;14.40;5.93;;;;;;;16.60;91.33;101927.22;4958367;28;20310;-75
2023/06/27 06:19:23;;;;;;;17.05;6.10;;;;;;;16.65;90.96;101925.00;4972111;28;20388;-79
2023/06/27 06:21:50;;;;;;;20.17;6.55;;;;;;;16.72;90.56;101930.69;4972670;28;20035;-81
2023/06/27 06:24:15;;;;;;;19.13;6.15;;;;;;;16.78;90.59;101927.53;4971144;28;20038;-80
2023/06/27 06:26:41;;;;;;;15.80;6.22;;;;;;;16.83;90.11;101931.53;4971979;28;20031;-80
2023/06/27 06:29:12;;;;;;;16.20;5.70;;;;;;;16.90;90.52;101927.38;4973540;28;20073;-80
2023/06/27 06:31:38;;;;;;;15.88;6.57;;;;;;;17.02;90.17;101930.81;4964378;28;20027;-80
2023/06/27 06:34:04;;;;;;;13.55;6.25;;;;;;;17.10;89.98;101925.69;4965428;28;20077;-81
2023/06/27 06:36:29;;;;;;;17.83;6.05;;;;;;;17.19;90.01;101930.22;4987636;28;20062;-80
2023/06/27 06:38:55;;;;;;;18.90;6.70;;;;;;;17.29;89.35;101935.63;4975606;28;20039;-80
2023/06/27 06:41:20;;;;;;;15.95;6.45;;;;;;;17.36;88.75;101938.59;4972855;28;20030;-81
2023/06/27 06:43:46;;;;;;;14.40;6.53;;;;;;;17.47;88.83;101944.69;4972073;28;20026;-82
2023/06/27 06:46:11;;;;;;;15.15;6.05;;;;;;;17.50;87.82;101947.09;4970893;28;20104;-79
2023/06/27 06:48:40;;;;;;;17.33;6.57;;;;;;;17.60;87.75;101951.59;4972536;28;20057;-79
2023/06/27 06:51:05;;;;;;;28.65;6.45;;;;;;;17.65;87.63;101944.09;4970551;28;20027;-80
2023/06/27 06:53:30;;;;;;;17.30;6.47;;;;;;;17.77;88.14;101945.72;4963459;28;20141;-79
2023/06/27 06:55:56;;;;;;;20.65;6.32;;;;;;;17.84;87.06;101939.72;4969305;28;20058;-82
2023/06/27 06:58:21;;;;;;;18.73;6.55;;;;;;;17.94;85.77;101936.25;4967341;28;20038;-81
2023/06/27 07:00:46;;;;;;;16.40;6.50;;;;;;;18.03;85.32;101944.31;4974790;28;20110;-80
2023/06/27 07:03:13;;;;;;;16.63;6.07;;;;;;;18.12;84.58;101930.16;4970771;28;20042;-80
2023/06/27 07:05:40;;;;;;;15.07;5.85;;;;;;;18.30;84.42;101945.47;4971524;28;20019;-80
2023/06/27 07:08:06;;;;;;;13.80;5.70;;;;;;;18.44;83.02;101945.13;4975112;28;20442;-81
2023/06/27 07:10:32;;;;;;;18.15;7.28;;;;;;;18.61;81.84;101941.75;4971184;28;20034;-81
2023/06/27 07:12:59;;;;;;;14.10;6.13;;;;;;;18.95;81.28;101939.56;4975293;28;20037;-81
2023/06/27 07:15:26;;;;;;;15.77;5.55;;;;;;;19.37;79.88;101939.22;4977334;28;20078;-81
2023/06/27 07:17:55;;;;;;;20.83;5.80;;;;;;;19.68;77.61;101945.22;4971529;28;20026;-81
2023/06/27 07:20:22;;;;;;;15.32;5.65;;;;;;;20.08;75.93;101952.91;4967958;28;20062;-81
2023/06/27 07:22:50;;;;;;;12.98;4.88;;;;;;;20.40;72.13;101939.09;4972269;28;20508;-80
2023/06/27 07:25:18;;;;;;;13.07;5.05;;;;;;;20.64;68.85;101950.06;4972770;28;20467;-82
2023/06/27 07:27:44;;;;;;;14.30;5.18;;;;;;;20.71;69.62;101941.41;4969634;28;20478;-81
2023/06/27 07:30:11;;;;;;;12.45;4.80;;;;;;;20.91;69.90;101942.97;4970668;28;20105;-82
2023/06/27 07:32:40;;;;;;;12.05;4.35;;;;;;;21.18;64.62;101940.16;4971677;28;20027;-81
2023/06/27 07:35:06;;;;;;;8.55;4.03;;;;;;;21.43;63.09;101937.69;4967662;28;20047;-80
2023/06/27 07:37:31;;;;;;;12.45;4.10;;;;;;;21.53;61.29;101938.41;4987854;28;20046;-80
2023/06/27 07:39:58;;;;;;;10.30;3.70;;;;;;;21.65;61.77;101928.28;4970155;28;20037;-79
2023/06/27 07:42:25;;;;;;;15.40;4.05;;;;;;;21.66;60.42;101935.31;4969033;28;20545;-81
2023/06/27 07:44:51;;;;;;;12.82;3.35;;;;;;;21.66;59.35;101928.13;4971622;28;20031;-80
2023/06/27 07:47:16;;;;;;;10.20;3.28;;;;;;;21.80;60.43;101940.91;4969966;28;20031;-80
2023/06/27 07:49:42;;;;;;;9.10;3.25;;;;;;;21.89;59.48;101941.78;4940310;28;20045;-80
2023/06/27 07:52:11;;;;;;;9.73;3.13;;;;;;;21.87;58.60;101931.22;4977288;28;20035;-80
2023/06/27 07:54:38;;;;;;;9.95;3.00;;;;;;;21.88;58.64;101935.59;4970810;28;20035;-80
2023/06/27 07:57:04;;;;;;;8.90;3.00;;;;;;;21.96;57.11;101923.22;4967318;28;20045;-80
2023/06/27 07:59:30;;;;;;;7.78;2.65;;;;;;;21.80;57.50;101934.72;4957853;28;20022;-81
2023/06/27 08:01:56;;;;;;;8.55;2.45;;;;;;;21.78;55.98;101934.88;4961378;28;20019;-81
2023/06/27 08:04:22;;;;;;;8.25;2.20;;;;;;;21.99;56.10;101930.94;4964619;28;20019;-81
2023/06/27 08:06:49;;;;;;;6.85;2.72;;;;;;;22.10;55.52;101925.34;4955206;28;20043;-81
2023/06/27 08:09:14;;;;;;;5.90;2.38;;;;;;;22.43;55.39;101926.28;4965244;28;20110;-81
2023/06/27 08:11:40;;;;;;;8.65;2.30;;;;;;;22.41;56.46;101921.03;4958162;28;20117;-79
2023/06/27 08:14:05;;;;;;;6.22;1.88;;;;;;;22.31;51.09;101925.72;4960724;28;20158;-80
2023/06/27 08:16:30;;;;;;;4.10;1.52;;;;;;;22.32;51.04;101923.88;4963361;28;20113;-81
2023/06/27 08:18:56;;;;;;;5.88;1.70;;;;;;;22.34;52.55;101917.34;4954531;28;20395;-80
2023/06/27 08:21:21;;;;;;;5.80;1.83;;;;;;;22.49;52.23;101920.25;4965325;28;20023;-80
2023/06/27 08:23:47;;;;;;;6.50;1.98;;;;;;;22.40;51.57;101916.69;4958441;28;20023;-80
2023/06/27 08:26:14;;;;;;;5.60;1.90;;;;;;;22.73;52.15;101916.72;4958927;28;20070;-80
2023/06/27 08:28:39;;;;;;;7.25;2.28;;;;;;;22.94;50.05;101913.59;4966449;28;20023;-80
2023/06/27 08:31:05;;;;;;;6.57;1.80;;;;;;;23.09;50.96;101923.47;4953744;28;20042;-80
2023/06/27 08:33:30;;;;;;;5.45;2.30;;;;;;;23.05;50.77;101919.47;4963945;28;20059;-80
2023/06/27 08:36:00;;;;;;;6.63;2.08;;;;;;;23.03;50.53;101920.63;4960242;28;20027;-80
2023/06/27 08:38:26;;;;;;;8.70;2.38;;;;;;;22.87;50.93;101916.13;4969972;28;20030;-81
2023/06/27 08:40:56;;;;;;;7.18;2.40;;;;;;;22.88;51.59;101920.47;4970665;28;20070;-81
2023/06/27 08:43:24;;;;;;;7.38;2.20;;;;;;;22.78;51.17;101925.13;4970436;28;20027;-80
2023/06/27 08:45:52;;;;;;;7.57;2.30;;;;;;;22.70;51.48;101927.81;4969753;28;20022;-80
2023/06/27 08:48:19;;;;;;;5.95;2.30;;;;;;;22.55;50.67;101908.00;4969243;28;20022;-80
2023/06/27 08:50:45;;;;;;;5.38;2.10;;;;;;;22.47;52.45;101919.56;4969111;28;20030;-79
2023/06/27 08:53:16;;;;;;;10.32;2.10;;;;;;;22.50;51.89;101916.56;4970710;28;20565;-79
2023/06/27 08:55:48;;;;;;;6.68;1.83;;;;;;;22.44;52.50;101907.34;4970545;28;20415;-80
2023/06/27 08:58:16;;;;;;;7.22;2.15;;;;;;;22.21;51.60;101911.63;4968995;28;20031;-80
2023/06/27 09:00:44;;;;;;;6.90;2.00;;;;;;;21.93;53.85;101912.81;4971281;28;20085;-79
2023/06/27 09:03:12;;;;;;;9.80;2.80;;;;;;;21.72;54.32;101913.25;4970842;28;20027;-80
2023/06/27 09:05:38;;;;;;;7.75;2.10;;;;;;;21.67;53.42;101904.88;4970970;28;20103;-79
2023/06/27 09:08:04;;;;;;;6.03;1.83;;;;;;;21.58;53.64;101910.16;4971237;28;20121;-80
2023/06/27 09:10:30;;;;;;;7.72;1.80;;;;;;;21.51;53.37;101906.44;4964474;28;20396;-79
2023/06/27 09:12:56;;;;;;;4.93;1.60;;;;;;;21.56;52.49;101914.00;4950783;28;20019;-79
2023/06/27 09:15:22;;;;;;;4.32;1.42;;;;;;;21.55;50.59;101912.31;4951395;29;20488;-79
2023/06/27 09:17:48;;;;;;;4.25;1.48;;;;;;;21.59;51.35;101917.19;4951591;29;20038;-79
2023/06/27 09:20:19;;;;;;;3.85;1.73;;;;;;;21.55;51.34;101915.00;4952228;28;20388;-78
2023/06/27 09:22:45;;;;;;;6.68;1.83;;;;;;;21.59;49.95;101911.84;4968805;28;20027;-79
2023/06/27 09:25:15;;;;;;;5.03;1.60;;;;;;;21.59;51.00;101916.34;4968621;28;20383;-79
2023/06/27 09:27:45;;;;;;;7.45;1.83;;;;;;;21.52;50.42;101924.19;4969551;28;20023;-81
2023/06/27 09:30:12;;;;;;;7.80;1.80;;;;;;;21.65;49.73;101912.22;4969997;28;20030;-79
2023/06/27 09:32:56;;;;;;;10.73;1.70;;;;;;;21.72;50.93;101916.78;4985024;28;20399;-80
2023/06/27 09:35:23;;;;;;;16.00;2.03;;;;;;;22.42;49.99;101911.19;4973283;28;20051;-78
2023/06/27 09:37:49;;;;;;;3.50;1.20;;;;;;;22.79;48.25;101910.69;4973964;28;20105;-79
2023/06/27 09:40:25;;;;;;;4.47;1.70;;;;;;;22.85;45.65;101915.44;4973079;28;20027;-78
2023/06/27 09:42:54;;;;;;;5.85;1.40;;;;;;;23.16;45.66;101917.44;4973746;28;20490;-81
2023/06/27 09:45:20;;;;;;;5.22;1.50;;;;;;;23.08;46.27;101920.97;4962707;28;20161;-81
2023/06/27 09:47:50;;;;;;;5.70;1.10;;;;;;;23.14;47.12;101926.50;4968609;28;20038;-80
2023/06/27 09:50:16;;;;;;;3.97;1.05;;;;;;;23.31;43.42;101918.44;4954166;28;20019;-80
2023/06/27 09:53:05;;;;;;;4.90;1.20;;;;;;;23.61;45.95;101933.81;4954661;28;20174;-80
2023/06/27 09:55:31;;;;;;;4.70;1.20;;;;;;;23.87;40.84;101927.34;4960438;28;20027;-79
2023/06/27 09:58:23;;;;;;;4.40;1.40;;;;;;;23.90;42.76;101918.94;4977879;28;20084;-80
2023/06/27 10:00:51;;;;;;;5.78;1.40;;;;;;;24.06;41.62;101917.03;4969420;28;20031;-79
2023/06/27 10:03:19;;;;;;;4.38;1.25;;;;;;;24.19;41.17;101919.16;4974210;28;20121;-78
2023/06/27 10:05:45;;;;;;;3.78;1.35;;;;;;;24.27;40.40;101911.06;4973666;28;20030;-80
2023/06/27 10:08:11;;;;;;;4.25;1.58;;;;;;;24.16;40.56;101924.03;4972521;28;20232;-80
2023/06/27 10:10:38;;;;;;;4.65;1.40;;;;;;;24.49;41.70;101913.97;4991995;28;20018;-80
2023/06/27 10:13:05;;;;;;;3.15;1.10;;;;;;;24.84;39.88;101921.44;4993271;28;20026;-79
2023/06/27 10:15:31;;;;;;;3.63;1.10;;;;;;;25.18;39.30;101914.75;4990853;28;20014;-80
2023/06/27 10:17:56;;;;;;;2.67;1.00;;;;;;;25.55;38.26;101916.56;4989324;28;20394;-79
2023/06/27 10:20:23;;;;;;;2.83;1.10;;;;;;;25.82;37.44;101912.41;4980326;28;20723;-80
2023/06/27 10:22:49;;;;;;;2.78;1.20;;;;;;;25.57;37.99;101923.44;4992100;28;20026;-79
2023/06/27 10:25:18;;;;;;;3.03;1.20;;;;;;;25.38;38.51;101918.59;4992195;28;20028;-79
2023/06/27 10:27:43;;;;;;;4.55;1.02;;;;;;;25.17;39.07;101915.75;4992439;28;20101;-80
2023/06/27 10:30:22;;;;;;;4.15;1.20;;;;;;;25.17;38.45;101927.38;4978360;28;20109;-79
2023/06/27 10:32:49;;;;;;;3.40;1.10;;;;;;;25.29;38.54;101923.25;4991937;28;20072;-80
2023/06/27 10:35:25;;;;;;;2.83;1.00;;;;;;;25.23;38.82;101925.84;4986606;28;20050;-80
2023/06/27 10:38:13;;;;;;;6.90;1.17;;;;;;;25.19;39.49;101928.03;4972769;28;20110;-79
2023/06/27 10:40:58;;;;;;;4.10;1.30;;;;;;;24.87;40.10;101912.16;4979696;28;20546;-80
2023/06/27 10:43:38;;;;;;;2.67;1.10;;;;;;;24.82;38.55;101918.09;4977218;28;20031;-80
2023/06/27 10:46:16;;;;;;;7.05;1.20;;;;;;;24.96;38.54;101917.28;4970583;28;20026;-79
2023/06/27 10:49:05;;;;;;;2.45;0.90;;;;;;;24.96;38.65;101914.59;4977544;28;20030;-78
2023/06/27 10:51:51;;;;;;;3.20;1.10;;;;;;;25.04;38.88;101910.19;4979394;28;20065;-79
2023/06/27 10:54:18;;;;;;;3.25;1.05;;;;;;;24.73;38.25;101911.06;4966790;28;20054;-80
2023/06/27 10:56:46;;;;;;;3.40;1.00;;;;;;;24.49;38.97;101900.50;4974879;28;20027;-79
2023/06/27 10:59:15;;;;;;;2.85;1.00;;;;;;;24.40;38.69;101909.63;4973950;28;20045;-79
2023/06/27 11:02:01;;;;;;;3.90;1.10;;;;;;;24.36;38.31;101907.28;4975618;28;20054;-79
2023/06/27 11:04:46;;;;;;;5.53;1.13;;;;;;;24.48;37.91;101905.06;4978868;28;20034;-79
2023/06/27 11:07:19;;;;;;;5.07;0.95;;;;;;;24.80;37.38;101903.94;4983745;28;20058;-78
2023/06/27 11:09:54;;;;;;;4.70;0.85;;;;;;;24.81;36.64;101912.84;4982305;28;23586;-78
2023/06/27 11:12:21;;;;;;;2.08;0.95;;;;;;;24.82;36.52;101918.09;4975646;28;20015;-78
2023/06/27 11:14:51;;;;;;;3.50;1.00;;;;;;;25.02;36.06;101917.59;4991942;28;20022;-79
2023/06/27 11:17:18;;;;;;;4.45;1.20;;;;;;;25.18;35.69;101912.06;4987471;28;20097;-80
2023/06/27 11:19:44;;;;;;;5.60;1.50;;;;;;;25.13;36.14;101912.59;4982865;28;20478;-78
2023/06/27 11:22:11;;;;;;;3.80;1.13;;;;;;;25.25;35.04;101908.47;4976653;28;20115;-79